Latest Weather Observations for Broome

IDW60801

Issued at 9:43 pm WST Monday 27 January 2020 (issued every 10 minutes, with the page automatically refreshed every 10 minutes)

About weather observations | Map of weather stations | Latest weather observations for WA | Other Formats
Station Details ID: 003003 Name: BROOME AIRPORT Lat: -17.95 Lon: 122.24 Height: 7.42 m
Data from the previous 72 hours. | See also: Recent months at Broome
Date/Time
WST
Temp
°C
App
Temp
°C
Dew
Point
°C
Rel
Hum
%
Delta-T
°C
Wind Press
QNH
hPa
Press
MSL
hPa
Rain since
9am
mm
Dir  Spd
km/h
Gust
km/h
Spd
kts
Gust
kts
27/09:30pm 28.6 32.4 23.4 73 3.6 NW 9 13 5 7 1009.6 1009.5 0.0
27/09:00pm 28.2 31.0 22.3 70 4.0 NNW 11 13 6 7 1009.8 1009.7 0.0
27/08:30pm 28.1 30.6 22.5 71 3.8 NNE 13 20 7 11 1009.9 1009.8 0.0
27/08:00pm 29.6 32.0 23.7 70 4.1 NNE 17 22 9 12 1010.1 1010.0 0.0
27/07:30pm 30.4 35.7 25.9 77 3.2 W 9 13 5 7 1009.7 1009.6 0.0
27/07:00pm 30.6 35.7 25.5 74 3.6 WSW 9 15 5 8 1009.2 1009.1 0.0
27/06:30pm 30.8 34.6 25.3 72 3.9 WSW 15 19 8 10 1008.9 1008.8 0.0
27/06:00pm 31.2 34.9 25.1 70 4.3 W 15 20 8 11 1008.4 1008.3 0.0
27/05:30pm 31.3 33.9 24.6 67 4.7 WNW 19 24 10 13 1007.8 1007.7 0.0
27/05:00pm 32.1 35.5 24.6 64 5.3 W 15 28 8 15 1007.7 1007.6 0.0
27/04:30pm 31.9 35.0 24.8 66 5.0 WNW 17 22 9 12 1007.4 1007.3 0.0
27/04:00pm 31.9 35.0 24.8 66 5.0 WNW 17 26 9 14 1007.3 1007.2 0.0
27/03:30pm 32.4 35.0 24.9 64 5.3 W 20 28 11 15 1007.2 1007.1 0.0
27/03:00pm 32.9 35.2 25.0 63 5.6 W 22 28 12 15 1007.5 1007.4 0.0
27/02:30pm 32.3 34.7 24.6 64 5.4 W 20 30 11 16 1007.6 1007.5 0.0
27/02:00pm 32.5 35.2 25.0 64 5.3 W 20 30 11 16 1008.1 1008.0 0.0
27/01:30pm 32.8 35.5 25.0 63 5.5 WNW 20 28 11 15 1008.6 1008.5 0.0
27/01:00pm 32.2 35.0 25.0 65 5.1 W 19 28 10 15 1008.7 1008.6 0.0
27/12:30pm 32.6 35.1 24.8 63 5.5 W 20 26 11 14 1009.1 1009.0 0.0
27/12:00pm 32.4 35.1 25.0 65 5.2 W 20 30 11 16 1009.2 1009.1 0.0
27/11:30am 32.2 34.9 25.0 65 5.1 WNW 20 28 11 15 1009.6 1009.5 0.0
27/11:00am 31.9 34.8 25.1 67 4.8 WNW 19 28 10 15 1009.8 1009.7 0.0
27/10:30am 31.4 34.6 25.5 71 4.2 WNW 19 26 10 14 1009.8 1009.7 0.0
27/10:00am 32.0 35.2 25.5 68 4.6 WNW 19 26 10 14 1010.1 1010.0 0.0
27/09:30am 31.6 34.5 25.4 69 4.4 WNW 20 28 11 15 1010.0 1009.9 0.0
27/09:00am 31.2 34.1 25.9 73 3.8 NW 22 32 12 17 1009.6 1009.5 0.0
27/08:30am 31.1 34.3 25.5 72 4.0 NW 19 26 10 14 1009.4 1009.3 0.0
27/08:00am 30.8 33.9 25.4 73 3.8 NW 19 24 10 13 1009.2 1009.1 0.0
27/07:30am 30.6 35.1 25.8 75 3.4 NW 13 19 7 10 1009.2 1009.1 0.0
27/07:00am 29.4 35.2 25.7 80 2.6 N 6 7 3 4 1008.7 1008.6 0.0
27/06:30am 28.4 33.0 25.3 83 2.2 N 11 13 6 7 1008.2 1008.1 0.0
27/06:00am 27.6 32.3 25.0 86 1.8 NNW 9 13 5 7 1007.6 1007.5 0.0
27/05:30am 27.2 31.1 24.8 87 1.7 N 13 17 7 9 1007.1 1007.0 0.0
27/05:00am 26.7 31.4 25.0 90 1.2 NNE 9 11 5 6 1007.3 1007.2 0.0
27/04:30am 27.4 31.3 24.8 86 1.8 N 13 17 7 9 1006.9 1006.8 0.0
27/04:00am 26.9 31.8 25.3 91 1.1 N 9 13 5 7 1006.8 1006.7 0.0
27/03:30am 26.8 31.8 25.4 92 1.0 NNE 9 11 5 6 1006.7 1006.6 0.0
27/03:00am 26.8 33.6 25.5 93 0.9 CALM 0 7 0 4 1006.7 1006.6 0.0
27/02:30am 27.4 32.9 25.6 90 1.3 N 7 11 4 6 1006.9 1006.8 0.0
27/02:00am 27.7 33.8 26.2 91 1.1 NNE 6 9 3 5 1007.1 1007.0 0.0
27/01:30am 28.8 35.2 25.5 82 2.3 NW 2 7 1 4 1007.2 1007.1 0.0
27/01:00am 28.9 34.3 25.5 82 2.4 WNW 7 9 4 5 1007.4 1007.3 0.0
27/12:30am 29.2 34.6 25.4 80 2.7 WNW 7 11 4 6 1007.9 1007.8 0.0
27/12:00am 29.4 33.4 25.1 77 3.0 NW 13 17 7 9 1008.1 1008.0 0.0
 
Date/Time
WST
Temp
°C
App
Temp
°C
Dew
Point
°C
Rel
Hum
%
Delta-T
°C
Wind Press
QNH
hPa
Press
MSL
hPa
Rain since
9am
mm
Dir  Spd
km/h
Gust
km/h
Spd
kts
Gust
kts
26/11:30pm 29.7 33.8 25.2 77 3.2 W 13 15 7 8 1008.9 1008.8 0.0
26/11:00pm 29.8 33.8 25.0 75 3.4 W 13 17 7 9 1009.2 1009.1 0.0
26/10:30pm 30.0 33.9 24.9 74 3.6 SW 13 19 7 10 1010.0 1009.9 0.0
26/10:00pm 29.9 33.8 24.8 74 3.6 WSW 13 19 7 10 1009.6 1009.5 0.0
26/09:30pm 29.3 34.2 24.7 76 3.2 NW 7 13 4 7 1008.7 1008.6 0.0
26/09:00pm 29.5 34.8 25.2 77 3.0 WNW 7 13 4 7 1008.5 1008.4 0.0
26/08:30pm 29.6 33.1 24.9 76 3.3 WNW 15 20 8 11 1008.0 1007.9 0.0
26/08:00pm 29.7 33.2 24.9 75 3.4 WNW 15 22 8 12 1007.5 1007.4 0.0
26/07:30pm 29.8 33.0 25.0 75 3.4 NW 17 24 9 13 1006.9 1006.8 0.0
26/07:00pm 29.9 33.6 25.1 75 3.4 NW 15 20 8 11 1007.0 1006.9 0.0
26/06:30pm 30.2 34.1 25.5 76 3.3 NW 15 22 8 12 1007.0 1006.9 0.0
26/06:00pm 30.6 33.9 25.1 72 3.9 WNW 17 24 9 13 1006.5 1006.4 0.0
26/05:30pm 30.9 33.8 25.1 71 4.1 NW 19 24 10 13 1006.4 1006.3 0.0
26/05:00pm 31.3 34.2 25.4 71 4.2 WNW 20 26 11 14 1006.7 1006.6 0.0
26/04:30pm 31.9 34.9 25.6 69 4.5 WNW 20 30 11 16 1006.7 1006.6 0.0
26/04:00pm 31.8 33.9 25.3 68 4.6 NW 24 35 13 19 1006.7 1006.6 0.0
26/03:30pm 31.2 33.7 26.0 74 3.7 NW 24 33 13 18 1006.7 1006.6 0.0
26/03:00pm 32.1 34.1 25.8 69 4.5 NW 26 35 14 19 1007.0 1006.9 0.0
26/02:30pm 32.1 34.1 25.2 67 4.9 WNW 24 35 13 19 1007.1 1007.0 0.0
26/02:00pm 31.8 33.1 25.3 68 4.6 NW 28 37 15 20 1007.2 1007.1 0.0
26/01:30pm 32.4 33.7 25.2 66 5.1 NW 28 37 15 20 1007.3 1007.2 0.0
26/01:00pm 32.1 33.4 25.2 67 4.9 NW 28 39 15 21 1007.2 1007.1 0.0
26/12:30pm 32.0 32.3 24.9 66 5.0 NW 32 43 17 23 1007.6 1007.5 0.0
26/12:00pm 32.1 32.9 25.6 68 4.6 NW 32 43 17 23 1007.8 1007.7 0.0
26/11:30am 33.2 35.3 25.9 65 5.2 NW 26 35 14 19 1008.1 1008.0 0.0
26/11:00am 32.6 33.7 25.0 64 5.4 NNW 28 39 15 21 1008.3 1008.2 0.0
26/10:30am 32.2 33.8 25.1 66 5.0 NW 26 35 14 19 1008.7 1008.6 0.0
26/10:00am 32.4 34.2 25.4 66 5.0 NW 26 35 14 19 1008.9 1008.8 0.0
26/09:30am 32.0 34.9 25.4 68 4.7 NNW 20 33 11 18 1009.1 1009.0 0.0
26/09:00am 32.0 35.0 25.2 67 4.8 N 19 30 10 16 1009.2 1009.1 0.0
26/08:30am 31.1 34.3 25.8 73 3.8 NNW 20 30 11 16 1008.7 1008.6 0.0
26/08:00am 31.0 34.2 25.8 74 3.7 NW 20 28 11 15 1008.2 1008.1 0.0
26/07:30am 30.7 33.9 25.8 75 3.5 NW 20 30 11 16 1007.9 1007.8 0.0
26/07:00am 30.4 34.2 25.9 77 3.2 NW 17 24 9 13 1008.1 1008.0 0.0
26/06:30am 29.9 34.4 25.8 78 2.9 NW 13 20 7 11 1008.0 1007.9 0.0
26/06:00am 29.4 34.1 25.6 80 2.7 NW 11 17 6 9 1007.8 1007.7 0.0
26/05:30am 29.3 34.4 25.6 80 2.6 NW 9 13 5 7 1007.4 1007.3 0.0
26/05:00am 29.6 33.9 25.5 78 2.9 NW 13 19 7 10 1007.1 1007.0 0.0
26/04:30am 29.5 33.7 26.0 81 2.5 WNW 15 20 8 11 1006.6 1006.5 0.0
26/04:00am 29.4 33.1 25.7 80 2.6 WNW 17 24 9 13 1006.3 1006.2 0.0
26/03:30am 29.4 33.0 25.6 80 2.7 WNW 17 24 9 13 1006.3 1006.2 0.0
26/03:00am 29.4 32.7 26.0 82 2.4 WNW 20 30 11 16 1005.9 1005.8 0.0
26/02:44am 29.5 32.7 25.8 80 2.6 WNW 20 28 11 15 1006.0 1005.9 0.0
26/02:30am 29.3 32.7 25.9 82 2.4 WNW 19 28 10 15 1005.9 1005.8 0.0
26/02:00am 29.3 32.9 26.1 83 2.3 WNW 19 28 10 15 1006.0 1005.9 0.0
26/01:30am 29.4 32.7 26.0 82 2.4 WNW 20 32 11 17 1006.1 1006.0 0.0
26/01:00am 29.4 32.6 25.9 81 2.5 WNW 20 30 11 16 1006.3 1006.2 0.0
26/12:30am 29.4 32.3 26.0 82 2.4 WNW 22 32 12 17 1006.5 1006.4 0.0
26/12:00am 29.4 32.8 26.2 83 2.3 NW 20 28 11 15 1006.8 1006.7 0.0
 
Date/Time
WST
Temp
°C
App
Temp
°C
Dew
Point
°C
Rel
Hum
%
Delta-T
°C
Wind Press
QNH
hPa
Press
MSL
hPa
Rain since
9am
mm
Dir  Spd
km/h
Gust
km/h
Spd
kts
Gust
kts
25/11:30pm 29.5 33.0 26.3 83 2.3 NW 20 32 11 17 1007.0 1006.9 0.0
25/11:00pm 29.5 33.2 26.3 83 2.3 WNW 19 28 10 15 1007.2 1007.1 0.0
25/10:30pm 29.5 33.8 26.6 84 2.1 WNW 17 30 9 16 1007.2 1007.1 0.0
25/10:28pm 29.5 33.3 26.4 83 2.2 WNW 19 30 10 16 1007.1 1007.0 0.0
25/10:14pm 29.5 33.1 26.4 83 2.2 WNW 20 28 11 15 1007.0 1006.9 0.0
25/10:00pm 29.5 33.3 26.4 83 2.2 WNW 19 26 10 14 1007.2 1007.1 0.0
25/09:30pm 29.6 34.7 26.7 84 2.1 NW 13 22 7 12 1007.2 1007.1 0.0
25/09:00pm 29.6 33.6 26.8 85 2.0 WNW 19 28 10 15 1006.9 1006.8 0.0
25/08:30pm 29.7 34.3 27.1 86 1.9 NW 17 24 9 13 1006.5 1006.4 0.0
25/08:00pm 29.7 34.5 27.4 87 1.7 NW 17 24 9 13 1006.3 1006.2 0.0
25/07:30pm 29.7 35.3 27.4 87 1.7 NW 13 20 7 11 1006.0 1005.9 0.0
25/07:00pm 29.8 34.9 27.3 86 1.8 NW 15 24 8 13 1005.5 1005.4 0.0
25/06:56pm 29.8 34.5 27.3 86 1.8 NW 17 26 9 14 1005.5 1005.4 0.0
25/06:30pm 30.0 34.2 27.1 84 2.1 NW 19 24 10 13 1005.2 1005.1 0.0
25/06:00pm 30.5 34.6 27.2 82 2.4 WNW 20 26 11 14 1005.0 1004.9 0.0
25/05:39pm 31.2 35.2 27.1 79 3.0 WNW 20 26 11 14 1004.9 1004.8 0.0
25/05:30pm 31.2 35.1 26.9 78 3.1 W 20 28 11 15 1004.9 1004.8 0.0
25/05:00pm 31.5 34.8 26.6 75 3.5 W 22 30 12 16 1004.9 1004.8 0.0
25/04:30pm 31.6 35.0 26.7 75 3.5 W 22 28 12 15 1005.0 1004.9 0.0
25/04:21pm 31.7 35.1 26.7 75 3.6 WNW 22 32 12 17 1005.0 1004.9 0.0
25/04:00pm 32.1 35.6 26.8 73 3.8 W 22 30 12 16 1005.0 1004.9 0.0
25/03:30pm 32.3 35.0 26.3 70 4.3 W 24 32 13 17 1005.2 1005.1 0.0
25/03:20pm 32.3 35.6 26.6 72 4.1 W 22 33 12 18 1005.4 1005.3 0.0
25/03:08pm 32.5 35.7 26.5 70 4.3 W 22 32 12 17 1005.6 1005.5 0.0
25/03:00pm 32.3 35.6 26.6 72 4.1 W 22 32 12 17 1005.7 1005.6 0.0
25/02:30pm 32.3 35.0 26.3 70 4.3 W 24 32 13 17 1005.9 1005.8 0.0
25/02:00pm 32.4 35.5 26.3 70 4.4 W 22 33 12 18 1006.2 1006.1 0.0
25/01:30pm 32.3 35.3 26.2 70 4.4 W 22 35 12 19 1006.4 1006.3 0.0
25/01:00pm 32.9 35.9 26.2 68 4.8 W 22 30 12 16 1006.7 1006.6 0.0
25/12:30pm 32.6 35.8 25.9 68 4.8 W 20 30 11 16 1007.1 1007.0 0.0
25/12:00pm 32.6 35.8 25.9 68 4.8 W 20 30 11 16 1007.7 1007.6 0.0
25/11:30am 32.5 35.0 25.3 66 5.1 W 22 32 12 17 1008.2 1008.1 0.0
25/11:00am 32.7 35.7 25.5 66 5.1 W 20 33 11 18 1008.6 1008.5 0.0
25/10:30am 32.7 35.5 25.8 67 4.9 W 22 32 12 17 1008.9 1008.8 0.0
25/10:00am 32.6 34.7 25.3 65 5.2 WSW 24 32 13 17 1009.1 1009.0 0.0
25/09:30am 31.8 35.0 25.9 71 4.2 WSW 20 30 11 16 1009.2 1009.1 0.0
25/09:00am 31.6 35.2 26.1 72 3.9 W 19 32 10 17 1009.4 1009.3 0.0
25/08:30am 31.6 34.2 24.9 67 4.7 WSW 20 30 11 16 1009.3 1009.2 0.0
25/08:00am 31.2 33.5 25.1 70 4.3 W 22 30 12 16 1009.1 1009.0 0.0
25/07:30am 31.0 33.6 24.9 70 4.3 W 20 28 11 15 1008.8 1008.7 0.0
25/07:00am 30.7 33.7 25.5 74 3.7 WSW 20 26 11 14 1008.5 1008.4 0.0
25/06:30am 29.9 33.4 25.5 77 3.1 WSW 17 22 9 12 1008.5 1008.4 0.0
25/06:00am 29.7 33.7 25.6 78 2.9 WSW 15 20 8 11 1008.2 1008.1 0.0
25/05:30am 29.4 33.3 25.4 79 2.8 WSW 15 20 8 11 1007.7 1007.6 0.0
25/05:00am 29.4 33.0 25.6 80 2.7 WSW 17 22 9 12 1007.3 1007.2 0.0
25/04:30am 29.3 32.8 25.5 80 2.7 WSW 17 22 9 12 1007.0 1006.9 0.0
25/04:00am 29.3 33.4 25.8 81 2.5 W 15 20 8 11 1007.0 1006.9 0.0
25/03:30am 29.3 33.4 25.8 81 2.5 W 15 20 8 11 1007.0 1006.9 0.0
25/03:00am 29.4 33.2 25.9 81 2.5 W 17 20 9 11 1007.1 1007.0 0.0
25/02:30am 29.5 33.2 25.8 80 2.6 W 17 24 9 13 1007.2 1007.1 0.0
25/02:00am 29.5 33.4 26.0 81 2.5 W 17 22 9 12 1007.2 1007.1 0.0
25/01:32am 29.6 34.2 25.9 80 2.6 W 13 17 7 9 1007.5 1007.4 0.0
25/01:30am 29.5 34.1 26.0 81 2.5 W 13 20 7 11 1007.5 1007.4 0.0
25/01:00am 29.5 33.8 26.1 82 2.4 W 15 22 8 12 1007.6 1007.5 0.0
25/12:30am 29.5 33.3 26.4 83 2.2 W 19 24 10 13 1007.9 1007.8 0.0
25/12:00am 29.3 34.3 26.5 85 2.0 WNW 13 19 7 10 1008.0 1007.9 0.0
 
Date/Time
WST
Temp
°C
App
Temp
°C
Dew
Point
°C
Rel
Hum
%
Delta-T
°C
Wind Press
QNH
hPa
Press
MSL
hPa
Rain since
9am
mm
Dir  Spd
km/h
Gust
km/h
Spd
kts
Gust
kts
24/11:50pm 29.2 33.8 26.5 85 1.9 WNW 15 20 8 11 1008.1 1008.0 0.0
24/11:30pm 29.3 33.8 26.4 84 2.1 WNW 15 20 8 11 1008.3 1008.2 0.0
24/11:09pm 29.3 34.3 26.5 85 2.0 WNW 13 17 7 9 1008.4 1008.3 0.0
24/11:00pm 29.4 34.0 26.5 84 2.1 WNW 15 20 8 11 1008.6 1008.5 0.0
24/10:30pm 29.6 33.7 26.4 83 2.3 WNW 17 20 9 11 1008.7 1008.6 0.0
24/10:00pm 29.7 34.1 26.3 82 2.4 WNW 15 24 8 13 1008.7 1008.6 0.0

Other formats

Comma delimited format used in spreadsheet applications
http://www.bom.gov.au/fwo/IDW60801/IDW60801.94203.axf

JavaScript Object Notation format (JSON) in row-major order
http://www.bom.gov.au/fwo/IDW60801/IDW60801.94203.json

Data quality

Most of these data are generated automatically and are frequently updated. Quality checks on data are not normally performed. It is possible for incorrect values to appear. Refer to information at About Latest Weather Observations and please check the disclaimer before using these data.